createdAt,value
2022-11-29T00:02:30.070Z,10.84
2022-11-29T00:07:37.084Z,10.84
2022-11-29T00:12:43.278Z,10.87
2022-11-29T00:17:48.501Z,10.88
2022-11-29T00:22:53.398Z,10.92
2022-11-29T00:28:23.050Z,10.94
2022-11-29T00:33:30.802Z,10.96
2022-11-29T00:38:45.025Z,10.97
2022-11-29T00:43:50.185Z,10.96
2022-11-29T00:48:55.993Z,10.96
2022-11-29T00:54:03.273Z,10.98
2022-11-29T00:59:05.464Z,11.00
2022-11-29T01:04:09.691Z,11.02
2022-11-29T01:09:19.443Z,11.03
2022-11-29T01:14:28.157Z,11.04
2022-11-29T01:19:31.495Z,11.03
2022-11-29T01:24:35.957Z,11.02
2022-11-29T01:29:43.511Z,11.00
2022-11-29T01:34:46.982Z,11.00
2022-11-29T01:39:58.814Z,10.97
2022-11-29T01:45:25.281Z,10.96
2022-11-29T01:50:29.624Z,10.94
2022-11-29T01:55:43.461Z,10.91
2022-11-29T02:05:16.507Z,10.85
2022-11-29T02:10:47.894Z,10.83
2022-11-29T02:16:23.892Z,10.81
2022-11-29T02:22:04.195Z,10.80
2022-11-29T02:28:05.524Z,10.79
2022-11-29T02:33:37.779Z,10.76
2022-11-29T02:39:22.095Z,10.73
2022-11-29T02:44:47.956Z,10.70
2022-11-29T02:50:15.331Z,10.65
2022-11-29T02:55:44.393Z,10.64
2022-11-29T03:01:29.224Z,10.61
2022-11-29T03:07:05.284Z,10.57
2022-11-29T03:12:47.336Z,10.55
2022-11-29T03:18:33.110Z,10.53
2022-11-29T03:24:06.076Z,10.48
2022-11-29T03:29:26.117Z,10.44
2022-11-29T03:35:19.537Z,10.40
2022-11-29T03:40:44.769Z,10.36
2022-11-29T03:46:05.950Z,10.33
2022-11-29T03:51:56.067Z,10.31
2022-11-29T03:56:59.795Z,10.29
2022-11-29T04:02:52.104Z,10.31
2022-11-29T04:08:22.349Z,10.35
2022-11-29T04:14:43.938Z,10.36
2022-11-29T04:20:45.440Z,10.35
2022-11-29T04:26:09.870Z,10.39
2022-11-29T04:31:37.528Z,10.43
2022-11-29T04:37:51.864Z,10.48
2022-11-29T04:43:53.404Z,10.51
2022-11-29T04:49:24.583Z,10.55
2022-11-29T04:55:01.828Z,10.54
2022-11-29T05:08:37.090Z,10.41
2022-11-29T05:13:56.488Z,10.38
2022-11-29T05:19:19.353Z,10.41
2022-11-29T05:24:58.913Z,10.41
2022-11-29T05:30:09.396Z,10.42
2022-11-29T05:35:47.846Z,10.38
2022-11-29T05:41:17.507Z,10.26
2022-11-29T05:46:33.060Z,10.15
2022-11-29T05:51:48.914Z,10.09
2022-11-29T05:57:34.277Z,10.04
2022-11-29T06:03:18.472Z,10.01
2022-11-29T06:08:46.433Z,9.95
2022-11-29T06:14:18.093Z,9.93
2022-11-29T06:19:59.656Z,9.88
2022-11-29T06:25:27.583Z,9.90
2022-11-29T06:31:04.068Z,9.89
2022-11-29T06:36:45.127Z,9.88
2022-11-29T06:41:50.349Z,9.89
2022-11-29T06:47:06.411Z,9.93
2022-11-29T06:52:17.291Z,9.94
2022-11-29T06:58:06.393Z,9.93
2022-11-29T07:03:28.076Z,9.92
2022-11-29T07:08:33.626Z,9.89
2022-11-29T07:13:40.009Z,9.87
2022-11-29T07:19:09.080Z,9.86
2022-11-29T07:24:55.973Z,9.87
2022-11-29T07:30:11.938Z,9.89
2022-11-29T07:35:30.873Z,9.91
2022-11-29T07:40:52.099Z,9.91
2022-11-29T07:45:58.601Z,9.93
2022-11-29T07:51:02.346Z,9.97
2022-11-29T07:56:07.696Z,10.00
2022-11-29T08:01:13.111Z,10.39
2022-11-29T08:06:16.952Z,14.43
2022-11-29T08:11:31.002Z,16.58
2022-11-29T08:16:32.933Z,19.58
2022-11-29T08:21:36.177Z,17.01
2022-11-29T08:26:42.850Z,14.84
2022-11-29T08:31:45.658Z,13.82
2022-11-29T08:36:51.882Z,14.14
2022-11-29T08:41:59.275Z,15.19
2022-11-29T08:47:21.251Z,16.73
2022-11-29T08:52:43.340Z,17.87
2022-11-29T08:57:45.554Z,18.39
2022-11-29T09:02:52.574Z,18.66
2022-11-29T09:07:55.770Z,18.76
2022-11-29T09:12:57.601Z,18.14
2022-11-29T09:18:04.254Z,18.25
2022-11-29T09:23:06.814Z,18.20
2022-11-29T09:28:22.364Z,17.77
2022-11-29T09:33:35.556Z,17.71
2022-11-29T09:38:38.445Z,17.62
2022-11-29T09:44:03.234Z,17.77
2022-11-29T09:49:24.120Z,17.82
2022-11-29T09:55:00.517Z,17.89
2022-11-29T10:00:07.738Z,18.03
2022-11-29T10:05:51.490Z,18.07
2022-11-29T10:11:10.106Z,18.17
2022-11-29T10:16:21.389Z,18.23
2022-11-29T10:21:30.019Z,18.28
2022-11-29T10:26:35.619Z,18.48
2022-11-29T10:31:44.131Z,18.55
2022-11-29T10:36:52.967Z,18.71
2022-11-29T10:47:20.350Z,18.99
2022-11-29T10:52:23.547Z,19.12
2022-11-29T10:57:25.749Z,19.27
2022-11-29T11:02:28.329Z,19.38
2022-11-29T11:07:36.258Z,19.47
2022-11-29T11:13:00.360Z,19.42
2022-11-29T11:18:11.254Z,19.46
2022-11-29T11:23:42.723Z,19.36
2022-11-29T11:29:05.316Z,19.26
2022-11-29T11:34:34.239Z,19.36
2022-11-29T11:39:36.416Z,19.31
2022-11-29T11:45:01.209Z,19.20
2022-11-29T11:50:09.434Z,19.30
2022-11-29T11:55:29.953Z,19.46
2022-11-29T12:01:14.028Z,19.29
2022-11-29T12:06:38.260Z,19.32
2022-11-29T12:12:27.390Z,19.35
2022-11-29T12:17:47.436Z,19.59
2022-11-29T12:23:19.637Z,19.84
2022-11-29T12:28:34.222Z,19.99
2022-11-29T12:33:46.998Z,20.21
2022-11-29T12:39:20.363Z,20.16
2022-11-29T12:44:31.123Z,19.96
2022-11-29T12:49:51.676Z,20.03
2022-11-29T12:55:25.090Z,19.99
2022-11-29T13:00:33.970Z,19.89
2022-11-29T13:06:08.220Z,19.91
2022-11-29T13:11:37.328Z,20.09
2022-11-29T13:16:56.303Z,20.26
2022-11-29T13:22:10.393Z,20.23
2022-11-29T13:27:23.329Z,20.21
2022-11-29T13:32:57.249Z,20.20
2022-11-29T13:38:34.872Z,20.26
2022-11-29T13:44:03.306Z,20.17
2022-11-29T13:49:06.129Z,20.13
2022-11-29T13:54:30.886Z,20.03
2022-11-29T13:59:36.069Z,19.97
2022-11-29T14:04:46.254Z,19.90
2022-11-29T14:10:03.934Z,19.72
2022-11-29T14:15:22.607Z,19.56
2022-11-29T14:20:28.584Z,19.58
2022-11-29T14:26:05.551Z,19.48
2022-11-29T14:31:12.491Z,19.41
2022-11-29T14:36:26.350Z,19.32
2022-11-29T14:41:54.224Z,19.23
2022-11-29T14:47:13.458Z,19.20
2022-11-29T14:52:15.324Z,19.11
2022-11-29T14:57:45.155Z,18.97
2022-11-29T15:03:19.026Z,18.85
2022-11-29T15:08:26.896Z,18.72
2022-11-29T15:13:37.431Z,18.60
2022-11-29T15:18:42.300Z,18.49
2022-11-29T15:23:44.682Z,18.39
2022-11-29T15:28:46.913Z,18.30
2022-11-29T15:33:54.846Z,18.20
2022-11-29T15:38:59.343Z,18.09
2022-11-29T15:44:04.674Z,18.00
2022-11-29T15:49:18.183Z,17.88
2022-11-29T15:54:49.576Z,17.78
2022-11-29T15:59:58.241Z,17.65
2022-11-29T16:05:30.279Z,17.49
2022-11-29T16:10:41.821Z,17.34
2022-11-29T16:15:46.150Z,17.14
2022-11-29T16:21:04.343Z,16.98
2022-11-29T16:26:27.403Z,16.83
2022-11-29T16:31:38.795Z,16.72
2022-11-29T16:36:40.792Z,16.63
2022-11-29T16:42:03.791Z,16.51
2022-11-29T16:47:18.154Z,16.41
2022-11-29T16:52:30.119Z,16.32
2022-11-29T16:57:45.367Z,16.22
2022-11-29T17:02:47.566Z,16.13
2022-11-29T17:07:53.757Z,16.02
2022-11-29T17:12:55.857Z,15.97
2022-11-29T17:17:59.188Z,15.92
2022-11-29T17:23:01.701Z,15.87
2022-11-29T17:28:06.593Z,15.82
2022-11-29T17:33:09.693Z,15.76
2022-11-29T17:38:12.239Z,15.69
2022-11-29T17:43:17.895Z,15.64
2022-11-29T17:48:19.872Z,15.57
2022-11-29T17:53:22.004Z,15.52
2022-11-29T17:58:25.357Z,15.48
2022-11-29T18:03:28.803Z,15.44
2022-11-29T18:08:31.795Z,15.40
2022-11-29T18:13:37.042Z,15.37
2022-11-29T18:18:39.680Z,15.36
2022-11-29T18:23:42.950Z,15.36
2022-11-29T18:28:48.118Z,15.36
2022-11-29T18:33:53.996Z,15.36
2022-11-29T18:39:05.933Z,15.33
2022-11-29T18:44:11.271Z,15.34
2022-11-29T18:49:19.067Z,15.30
2022-11-29T18:54:26.421Z,15.29
2022-11-29T18:59:32.185Z,15.26
2022-11-29T19:04:41.791Z,15.17
2022-11-29T19:09:43.863Z,15.06
2022-11-29T19:14:49.850Z,14.97
2022-11-29T19:19:54.362Z,14.91
2022-11-29T19:24:56.776Z,14.83
2022-11-29T19:29:59.638Z,14.75
2022-11-29T19:35:05.284Z,14.66
2022-11-29T19:40:16.324Z,14.61
2022-11-29T19:45:18.511Z,14.51
2022-11-29T19:50:20.550Z,14.45
2022-11-29T19:55:22.976Z,14.38
2022-11-29T20:00:24.961Z,14.30
2022-11-29T20:05:27.293Z,14.24
2022-11-29T20:10:29.501Z,14.21
2022-11-29T20:15:31.593Z,14.13
2022-11-29T20:20:34.483Z,14.09
2022-11-29T20:25:40.491Z,14.05
2022-11-29T20:30:46.243Z,14.00
2022-11-29T20:36:09.681Z,13.93
2022-11-29T20:41:23.661Z,13.81
2022-11-29T20:46:26.162Z,13.71
2022-11-29T20:52:05.459Z,13.63
2022-11-29T20:57:09.046Z,13.57
2022-11-29T21:02:11.106Z,13.52
2022-11-29T21:07:13.090Z,13.44
2022-11-29T21:12:15.732Z,13.41
2022-11-29T21:17:19.614Z,13.35
2022-11-29T21:22:52.894Z,12.95
2022-11-29T21:27:55.376Z,12.51
2022-11-29T21:32:57.570Z,12.36
2022-11-29T21:38:04.074Z,12.19
2022-11-29T21:43:20.729Z,12.10
2022-11-29T21:48:38.576Z,11.98
2022-11-29T21:53:50.804Z,11.85
2022-11-29T21:58:56.821Z,11.72
2022-11-29T22:03:58.864Z,11.59
2022-11-29T22:09:02.932Z,11.46
2022-11-29T22:14:14.316Z,11.47
2022-11-29T22:19:19.726Z,11.43
2022-11-29T22:24:24.277Z,11.21
2022-11-29T22:29:26.318Z,11.22
2022-11-29T22:34:30.308Z,11.10
2022-11-29T22:39:32.347Z,11.12
2022-11-29T22:44:34.401Z,11.07
2022-11-29T22:49:40.207Z,11.01
2022-11-29T22:54:42.587Z,11.01
2022-11-29T22:59:48.438Z,10.97
2022-11-29T23:04:54.474Z,10.88
2022-11-29T23:09:56.598Z,10.90
2022-11-29T23:14:58.838Z,10.84
2022-11-29T23:20:00.925Z,10.87
2022-11-29T23:25:07.275Z,10.80
2022-11-29T23:30:14.560Z,10.78
2022-11-29T23:35:16.480Z,10.65
2022-11-29T23:40:18.869Z,10.60
2022-11-29T23:45:30.150Z,10.61
2022-11-29T23:50:32.301Z,10.56
2022-11-29T23:55:34.218Z,10.59
